sensor_id;sensor_type;location;lat;lon;timestamp;P1;durP1;ratioP1;P2;durP2;ratioP2
11443;SDS011;5778;47.856;12.154;2023-03-30T00:01:28;1.73;;;1.63;;
11443;SDS011;5778;47.856;12.154;2023-03-30T00:04:10;2.83;;;1.60;;
11443;SDS011;5778;47.856;12.154;2023-03-30T00:06:37;2.20;;;2.00;;
11443;SDS011;5778;47.856;12.154;2023-03-30T00:09:06;4.00;;;2.03;;
11443;SDS011;5778;47.856;12.154;2023-03-30T00:11:33;3.03;;;1.73;;
11443;SDS011;5778;47.856;12.154;2023-03-30T00:14:12;3.73;;;2.07;;
11443;SDS011;5778;47.856;12.154;2023-03-30T00:16:43;1.73;;;1.63;;
11443;SDS011;5778;47.856;12.154;2023-03-30T00:19:10;4.30;;;1.80;;
11443;SDS011;5778;47.856;12.154;2023-03-30T00:21:37;3.37;;;1.80;;
11443;SDS011;5778;47.856;12.154;2023-03-30T00:24:20;3.37;;;1.80;;
11443;SDS011;5778;47.856;12.154;2023-03-30T00:26:47;2.83;;;1.70;;
11443;SDS011;5778;47.856;12.154;2023-03-30T00:29:14;2.63;;;1.90;;
11443;SDS011;5778;47.856;12.154;2023-03-30T00:31:42;3.50;;;2.00;;
11443;SDS011;5778;47.856;12.154;2023-03-30T00:37:09;3.90;;;1.90;;
11443;SDS011;5778;47.856;12.154;2023-03-30T00:39:36;2.20;;;1.90;;
11443;SDS011;5778;47.856;12.154;2023-03-30T00:42:03;2.93;;;1.97;;
11443;SDS011;5778;47.856;12.154;2023-03-30T00:48:21;2.13;;;1.70;;
11443;SDS011;5778;47.856;12.154;2023-03-30T00:50:52;2.73;;;1.50;;
11443;SDS011;5778;47.856;12.154;2023-03-30T00:56:15;6.33;;;2.17;;
11443;SDS011;5778;47.856;12.154;2023-03-30T00:58:47;3.43;;;1.80;;
11443;SDS011;5778;47.856;12.154;2023-03-30T01:01:15;5.70;;;2.13;;
11443;SDS011;5778;47.856;12.154;2023-03-30T01:03:51;3.03;;;1.70;;
11443;SDS011;5778;47.856;12.154;2023-03-30T01:06:19;2.43;;;1.70;;
11443;SDS011;5778;47.856;12.154;2023-03-30T01:08:48;3.47;;;1.93;;
11443;SDS011;5778;47.856;12.154;2023-03-30T01:11:16;4.63;;;1.83;;
11443;SDS011;5778;47.856;12.154;2023-03-30T01:13:43;2.70;;;1.80;;
11443;SDS011;5778;47.856;12.154;2023-03-30T01:16:15;5.47;;;1.90;;
11443;SDS011;5778;47.856;12.154;2023-03-30T01:18:52;5.23;;;2.10;;
11443;SDS011;5778;47.856;12.154;2023-03-30T01:21:33;5.73;;;1.63;;
11443;SDS011;5778;47.856;12.154;2023-03-30T01:24:32;2.40;;;1.60;;
11443;SDS011;5778;47.856;12.154;2023-03-30T01:27:17;3.30;;;1.73;;
11443;SDS011;5778;47.856;12.154;2023-03-30T01:30:15;5.17;;;1.80;;
11443;SDS011;5778;47.856;12.154;2023-03-30T01:39:36;5.43;;;1.70;;
11443;SDS011;5778;47.856;12.154;2023-03-30T01:42:12;3.27;;;1.83;;
11443;SDS011;5778;47.856;12.154;2023-03-30T01:47:39;4.57;;;1.70;;
11443;SDS011;5778;47.856;12.154;2023-03-30T01:50:16;2.93;;;1.60;;
11443;SDS011;5778;47.856;12.154;2023-03-30T01:52:50;2.70;;;1.60;;
11443;SDS011;5778;47.856;12.154;2023-03-30T01:55:23;5.50;;;1.90;;
11443;SDS011;5778;47.856;12.154;2023-03-30T01:57:55;4.30;;;1.80;;
11443;SDS011;5778;47.856;12.154;2023-03-30T02:00:28;3.63;;;1.60;;
11443;SDS011;5778;47.856;12.154;2023-03-30T02:06:43;5.23;;;1.70;;
11443;SDS011;5778;47.856;12.154;2023-03-30T02:09:14;4.00;;;1.50;;
11443;SDS011;5778;47.856;12.154;2023-03-30T02:11:47;3.50;;;1.40;;
11443;SDS011;5778;47.856;12.154;2023-03-30T02:17:32;3.77;;;1.50;;
11443;SDS011;5778;47.856;12.154;2023-03-30T02:19:59;6.67;;;1.80;;
11443;SDS011;5778;47.856;12.154;2023-03-30T02:22:31;4.07;;;1.63;;
11443;SDS011;5778;47.856;12.154;2023-03-30T02:28:17;11.43;;;1.80;;
11443;SDS011;5778;47.856;12.154;2023-03-30T02:30:44;4.53;;;1.80;;
11443;SDS011;5778;47.856;12.154;2023-03-30T02:37:07;5.47;;;2.10;;
11443;SDS011;5778;47.856;12.154;2023-03-30T02:39:49;3.50;;;1.70;;
11443;SDS011;5778;47.856;12.154;2023-03-30T02:42:33;3.43;;;1.37;;
11443;SDS011;5778;47.856;12.154;2023-03-30T02:45:28;3.83;;;1.53;;
11443;SDS011;5778;47.856;12.154;2023-03-30T02:48:11;5.50;;;1.60;;
11443;SDS011;5778;47.856;12.154;2023-03-30T02:50:44;6.20;;;1.83;;
11443;SDS011;5778;47.856;12.154;2023-03-30T02:57:15;5.17;;;1.60;;
11443;SDS011;5778;47.856;12.154;2023-03-30T03:00:37;4.83;;;1.60;;
11443;SDS011;5778;47.856;12.154;2023-03-30T03:03:15;4.17;;;1.60;;
11443;SDS011;5778;47.856;12.154;2023-03-30T03:05:46;4.50;;;1.60;;
11443;SDS011;5778;47.856;12.154;2023-03-30T03:08:14;5.00;;;1.60;;
11443;SDS011;5778;47.856;12.154;2023-03-30T03:10:46;8.30;;;1.97;;
11443;SDS011;5778;47.856;12.154;2023-03-30T03:16:26;6.80;;;2.20;;
11443;SDS011;5778;47.856;12.154;2023-03-30T03:19:07;7.17;;;1.97;;
11443;SDS011;5778;47.856;12.154;2023-03-30T03:21:34;4.33;;;1.80;;
11443;SDS011;5778;47.856;12.154;2023-03-30T03:27:11;4.27;;;1.83;;
11443;SDS011;5778;47.856;12.154;2023-03-30T03:29:57;4.00;;;1.60;;
11443;SDS011;5778;47.856;12.154;2023-03-30T03:32:26;3.00;;;1.80;;
11443;SDS011;5778;47.856;12.154;2023-03-30T03:35:12;4.27;;;2.27;;
11443;SDS011;5778;47.856;12.154;2023-03-30T03:37:39;2.90;;;1.43;;
11443;SDS011;5778;47.856;12.154;2023-03-30T03:40:06;3.90;;;2.23;;
11443;SDS011;5778;47.856;12.154;2023-03-30T03:42:36;3.10;;;1.47;;
11443;SDS011;5778;47.856;12.154;2023-03-30T03:45:09;4.80;;;2.03;;
11443;SDS011;5778;47.856;12.154;2023-03-30T03:47:50;6.47;;;2.03;;
11443;SDS011;5778;47.856;12.154;2023-03-30T03:50:24;5.73;;;1.80;;
11443;SDS011;5778;47.856;12.154;2023-03-30T03:56:18;6.03;;;1.83;;
11443;SDS011;5778;47.856;12.154;2023-03-30T03:58:46;9.27;;;2.07;;
11443;SDS011;5778;47.856;12.154;2023-03-30T04:01:13;7.93;;;2.10;;
11443;SDS011;5778;47.856;12.154;2023-03-30T04:06:46;4.93;;;2.33;;
11443;SDS011;5778;47.856;12.154;2023-03-30T04:09:13;5.40;;;2.20;;
11443;SDS011;5778;47.856;12.154;2023-03-30T04:12:15;5.30;;;2.23;;
11443;SDS011;5778;47.856;12.154;2023-03-30T04:15:02;5.67;;;2.30;;
11443;SDS011;5778;47.856;12.154;2023-03-30T04:17:55;5.17;;;2.47;;
11443;SDS011;5778;47.856;12.154;2023-03-30T04:20:40;5.07;;;3.07;;
11443;SDS011;5778;47.856;12.154;2023-03-30T04:23:26;4.90;;;2.67;;
11443;SDS011;5778;47.856;12.154;2023-03-30T04:26:15;6.27;;;2.70;;
11443;SDS011;5778;47.856;12.154;2023-03-30T04:29:03;4.73;;;2.47;;
11443;SDS011;5778;47.856;12.154;2023-03-30T04:31:40;5.97;;;2.80;;
11443;SDS011;5778;47.856;12.154;2023-03-30T04:34:40;7.13;;;2.30;;
11443;SDS011;5778;47.856;12.154;2023-03-30T04:37:28;3.20;;;2.23;;
11443;SDS011;5778;47.856;12.154;2023-03-30T04:40:15;6.00;;;2.37;;
11443;SDS011;5778;47.856;12.154;2023-03-30T04:46:05;10.33;;;3.30;;
11443;SDS011;5778;47.856;12.154;2023-03-30T04:48:59;4.43;;;2.50;;
11443;SDS011;5778;47.856;12.154;2023-03-30T04:51:45;7.13;;;2.50;;
11443;SDS011;5778;47.856;12.154;2023-03-30T04:54:40;6.13;;;2.20;;
11443;SDS011;5778;47.856;12.154;2023-03-30T04:57:27;9.17;;;2.57;;
11443;SDS011;5778;47.856;12.154;2023-03-30T05:00:20;5.83;;;2.50;;
11443;SDS011;5778;47.856;12.154;2023-03-30T05:05:58;4.67;;;2.47;;
11443;SDS011;5778;47.856;12.154;2023-03-30T05:08:38;4.63;;;2.40;;
11443;SDS011;5778;47.856;12.154;2023-03-30T05:11:30;5.13;;;2.90;;
11443;SDS011;5778;47.856;12.154;2023-03-30T05:17:17;6.70;;;3.00;;
11443;SDS011;5778;47.856;12.154;2023-03-30T05:20:00;6.23;;;3.03;;
11443;SDS011;5778;47.856;12.154;2023-03-30T05:23:01;4.30;;;2.80;;
11443;SDS011;5778;47.856;12.154;2023-03-30T05:25:51;6.17;;;2.83;;
11443;SDS011;5778;47.856;12.154;2023-03-30T05:28:50;6.40;;;2.80;;
11443;SDS011;5778;47.856;12.154;2023-03-30T05:31:34;7.87;;;3.60;;
11443;SDS011;5778;47.856;12.154;2023-03-30T05:34:34;5.43;;;2.10;;
11443;SDS011;5778;47.856;12.154;2023-03-30T05:37:11;5.20;;;2.50;;
11443;SDS011;5778;47.856;12.154;2023-03-30T05:39:43;7.63;;;2.53;;
11443;SDS011;5778;47.856;12.154;2023-03-30T05:42:36;4.57;;;2.70;;
11443;SDS011;5778;47.856;12.154;2023-03-30T05:45:25;4.47;;;2.30;;
11443;SDS011;5778;47.856;12.154;2023-03-30T05:48:06;6.60;;;3.10;;
11443;SDS011;5778;47.856;12.154;2023-03-30T05:51:02;8.90;;;3.23;;
11443;SDS011;5778;47.856;12.154;2023-03-30T05:54:09;5.17;;;2.80;;
11443;SDS011;5778;47.856;12.154;2023-03-30T05:56:57;5.00;;;2.60;;
11443;SDS011;5778;47.856;12.154;2023-03-30T05:59:35;5.07;;;2.60;;
11443;SDS011;5778;47.856;12.154;2023-03-30T06:02:27;5.63;;;2.80;;
11443;SDS011;5778;47.856;12.154;2023-03-30T06:05:01;6.23;;;2.77;;
11443;SDS011;5778;47.856;12.154;2023-03-30T06:07:29;5.57;;;2.57;;
11443;SDS011;5778;47.856;12.154;2023-03-30T06:09:56;7.80;;;2.90;;
11443;SDS011;5778;47.856;12.154;2023-03-30T06:12:26;6.00;;;2.90;;
11443;SDS011;5778;47.856;12.154;2023-03-30T06:18:42;4.13;;;2.93;;
11443;SDS011;5778;47.856;12.154;2023-03-30T06:21:12;7.23;;;3.20;;
11443;SDS011;5778;47.856;12.154;2023-03-30T06:24:03;5.73;;;3.20;;
11443;SDS011;5778;47.856;12.154;2023-03-30T06:26:32;4.17;;;3.07;;
11443;SDS011;5778;47.856;12.154;2023-03-30T06:28:59;6.03;;;3.30;;
11443;SDS011;5778;47.856;12.154;2023-03-30T06:31:26;6.73;;;3.20;;
11443;SDS011;5778;47.856;12.154;2023-03-30T06:34:12;4.00;;;2.97;;
11443;SDS011;5778;47.856;12.154;2023-03-30T06:36:38;4.47;;;3.17;;
11443;SDS011;5778;47.856;12.154;2023-03-30T06:39:06;4.37;;;3.03;;
11443;SDS011;5778;47.856;12.154;2023-03-30T06:41:33;7.90;;;3.47;;
11443;SDS011;5778;47.856;12.154;2023-03-30T06:44:06;7.40;;;3.80;;
11443;SDS011;5778;47.856;12.154;2023-03-30T06:46:37;3.87;;;3.20;;
11443;SDS011;5778;47.856;12.154;2023-03-30T06:49:04;6.47;;;3.53;;
11443;SDS011;5778;47.856;12.154;2023-03-30T06:51:45;7.80;;;4.43;;
11443;SDS011;5778;47.856;12.154;2023-03-30T06:54:24;7.37;;;4.50;;
11443;SDS011;5778;47.856;12.154;2023-03-30T06:56:58;6.57;;;4.20;;
11443;SDS011;5778;47.856;12.154;2023-03-30T07:06:18;10.73;;;4.53;;
11443;SDS011;5778;47.856;12.154;2023-03-30T07:08:47;5.93;;;3.77;;
11443;SDS011;5778;47.856;12.154;2023-03-30T07:11:19;7.77;;;3.83;;
11443;SDS011;5778;47.856;12.154;2023-03-30T07:13:54;6.23;;;3.43;;
11443;SDS011;5778;47.856;12.154;2023-03-30T07:16:23;9.33;;;3.90;;
11443;SDS011;5778;47.856;12.154;2023-03-30T07:18:51;6.30;;;3.37;;
11443;SDS011;5778;47.856;12.154;2023-03-30T07:21:18;6.73;;;3.70;;
11443;SDS011;5778;47.856;12.154;2023-03-30T07:24:03;7.30;;;3.90;;
11443;SDS011;5778;47.856;12.154;2023-03-30T07:26:34;7.43;;;3.63;;
11443;SDS011;5778;47.856;12.154;2023-03-30T07:29:06;8.83;;;4.13;;
11443;SDS011;5778;47.856;12.154;2023-03-30T07:31:36;9.17;;;6.27;;
11443;SDS011;5778;47.856;12.154;2023-03-30T07:36:56;9.27;;;5.77;;
11443;SDS011;5778;47.856;12.154;2023-03-30T07:39:28;14.13;;;8.07;;
11443;SDS011;5778;47.856;12.154;2023-03-30T07:41:55;10.67;;;6.93;;
11443;SDS011;5778;47.856;12.154;2023-03-30T07:47:32;5.50;;;4.87;;
11443;SDS011;5778;47.856;12.154;2023-03-30T07:50:00;6.30;;;4.13;;
11443;SDS011;5778;47.856;12.154;2023-03-30T07:52:28;5.40;;;3.80;;
11443;SDS011;5778;47.856;12.154;2023-03-30T07:55:05;8.03;;;4.03;;
11443;SDS011;5778;47.856;12.154;2023-03-30T07:57:39;8.03;;;2.40;;
11443;SDS011;5778;47.856;12.154;2023-03-30T08:00:07;5.80;;;2.10;;
11443;SDS011;5778;47.856;12.154;2023-03-30T08:06:40;5.87;;;4.00;;
11443;SDS011;5778;47.856;12.154;2023-03-30T08:09:09;5.47;;;3.10;;
11443;SDS011;5778;47.856;12.154;2023-03-30T08:11:38;10.97;;;4.63;;
11443;SDS011;5778;47.856;12.154;2023-03-30T08:14:17;4.00;;;2.50;;
11443;SDS011;5778;47.856;12.154;2023-03-30T08:16:44;5.07;;;2.10;;
11443;SDS011;5778;47.856;12.154;2023-03-30T08:19:11;6.30;;;2.70;;
11443;SDS011;5778;47.856;12.154;2023-03-30T08:21:38;5.13;;;2.40;;
11443;SDS011;5778;47.856;12.154;2023-03-30T08:27:30;7.93;;;2.93;;
11443;SDS011;5778;47.856;12.154;2023-03-30T08:29:57;5.23;;;2.60;;
11443;SDS011;5778;47.856;12.154;2023-03-30T08:32:24;6.17;;;3.10;;
11443;SDS011;5778;47.856;12.154;2023-03-30T08:34:51;4.97;;;2.10;;
11443;SDS011;5778;47.856;12.154;2023-03-30T08:37:19;4.73;;;2.10;;
11443;SDS011;5778;47.856;12.154;2023-03-30T08:39:46;3.97;;;2.17;;
11443;SDS011;5778;47.856;12.154;2023-03-30T08:42:22;6.90;;;2.70;;
11443;SDS011;5778;47.856;12.154;2023-03-30T08:45:11;5.27;;;2.37;;
11443;SDS011;5778;47.856;12.154;2023-03-30T08:47:39;4.73;;;2.33;;
11443;SDS011;5778;47.856;12.154;2023-03-30T08:50:10;10.33;;;2.13;;
11443;SDS011;5778;47.856;12.154;2023-03-30T08:52:40;7.53;;;2.20;;
11443;SDS011;5778;47.856;12.154;2023-03-30T08:55:21;6.03;;;1.60;;
11443;SDS011;5778;47.856;12.154;2023-03-30T08:57:56;5.27;;;2.07;;
11443;SDS011;5778;47.856;12.154;2023-03-30T09:00:31;4.63;;;1.20;;
11443;SDS011;5778;47.856;12.154;2023-03-30T09:06:05;3.03;;;1.30;;
11443;SDS011;5778;47.856;12.154;2023-03-30T09:08:37;4.40;;;1.73;;
11443;SDS011;5778;47.856;12.154;2023-03-30T09:11:08;4.13;;;1.60;;
11443;SDS011;5778;47.856;12.154;2023-03-30T09:13:39;5.40;;;1.70;;
11443;SDS011;5778;47.856;12.154;2023-03-30T09:16:11;7.17;;;1.83;;
11443;SDS011;5778;47.856;12.154;2023-03-30T09:18:41;7.70;;;1.97;;
11443;SDS011;5778;47.856;12.154;2023-03-30T09:21:10;6.67;;;2.00;;
11443;SDS011;5778;47.856;12.154;2023-03-30T09:26:39;4.27;;;1.90;;
11443;SDS011;5778;47.856;12.154;2023-03-30T09:29:15;4.13;;;2.00;;
11443;SDS011;5778;47.856;12.154;2023-03-30T09:31:47;6.63;;;1.93;;
11443;SDS011;5778;47.856;12.154;2023-03-30T09:34:26;9.10;;;1.93;;
11443;SDS011;5778;47.856;12.154;2023-03-30T09:36:57;5.70;;;1.73;;
11443;SDS011;5778;47.856;12.154;2023-03-30T09:39:43;4.70;;;1.50;;
11443;SDS011;5778;47.856;12.154;2023-03-30T09:42:17;4.13;;;1.20;;
11443;SDS011;5778;47.856;12.154;2023-03-30T09:45:02;3.43;;;1.33;;
11443;SDS011;5778;47.856;12.154;2023-03-30T09:47:37;3.80;;;1.30;;
11443;SDS011;5778;47.856;12.154;2023-03-30T09:50:07;3.90;;;1.67;;
11443;SDS011;5778;47.856;12.154;2023-03-30T09:52:36;8.00;;;1.93;;
11443;SDS011;5778;47.856;12.154;2023-03-30T09:55:15;6.00;;;2.40;;
11443;SDS011;5778;47.856;12.154;2023-03-30T09:57:50;4.50;;;2.07;;
11443;SDS011;5778;47.856;12.154;2023-03-30T10:00:24;6.07;;;3.17;;
11443;SDS011;5778;47.856;12.154;2023-03-30T10:03:01;6.60;;;2.60;;
11443;SDS011;5778;47.856;12.154;2023-03-30T10:05:29;5.50;;;1.83;;
11443;SDS011;5778;47.856;12.154;2023-03-30T10:07:58;6.13;;;2.00;;
11443;SDS011;5778;47.856;12.154;2023-03-30T10:10:29;5.67;;;1.57;;
11443;SDS011;5778;47.856;12.154;2023-03-30T10:15:54;5.73;;;1.60;;
11443;SDS011;5778;47.856;12.154;2023-03-30T10:18:27;5.77;;;1.83;;
11443;SDS011;5778;47.856;12.154;2023-03-30T10:21:00;9.73;;;1.60;;
11443;SDS011;5778;47.856;12.154;2023-03-30T10:23:30;3.70;;;1.37;;
11443;SDS011;5778;47.856;12.154;2023-03-30T10:26:02;4.53;;;1.70;;
11443;SDS011;5778;47.856;12.154;2023-03-30T10:28:30;3.70;;;1.57;;
11443;SDS011;5778;47.856;12.154;2023-03-30T10:31:02;8.13;;;1.50;;
11443;SDS011;5778;47.856;12.154;2023-03-30T10:36:22;5.27;;;1.70;;
11443;SDS011;5778;47.856;12.154;2023-03-30T10:38:53;7.70;;;1.83;;
11443;SDS011;5778;47.856;12.154;2023-03-30T10:41:23;5.53;;;1.77;;
11443;SDS011;5778;47.856;12.154;2023-03-30T10:47:24;5.63;;;1.77;;
11443;SDS011;5778;47.856;12.154;2023-03-30T10:50:07;5.07;;;2.07;;
11443;SDS011;5778;47.856;12.154;2023-03-30T10:53:06;4.77;;;1.90;;
11443;SDS011;5778;47.856;12.154;2023-03-30T10:55:43;5.47;;;1.67;;
11443;SDS011;5778;47.856;12.154;2023-03-30T10:58:19;9.80;;;1.67;;
11443;SDS011;5778;47.856;12.154;2023-03-30T11:01:01;4.00;;;1.40;;
11443;SDS011;5778;47.856;12.154;2023-03-30T11:03:50;5.60;;;1.80;;
11443;SDS011;5778;47.856;12.154;2023-03-30T11:06:23;9.33;;;1.70;;
11443;SDS011;5778;47.856;12.154;2023-03-30T11:08:53;5.90;;;1.33;;
11443;SDS011;5778;47.856;12.154;2023-03-30T11:11:27;6.53;;;2.00;;
11443;SDS011;5778;47.856;12.154;2023-03-30T11:16:48;9.23;;;1.90;;
11443;SDS011;5778;47.856;12.154;2023-03-30T11:19:21;6.20;;;2.50;;
11443;SDS011;5778;47.856;12.154;2023-03-30T11:21:52;9.67;;;2.20;;
11443;SDS011;5778;47.856;12.154;2023-03-30T11:27:41;4.57;;;1.70;;
11443;SDS011;5778;47.856;12.154;2023-03-30T11:30:14;6.93;;;1.80;;
11443;SDS011;5778;47.856;12.154;2023-03-30T11:35:46;6.03;;;1.57;;
11443;SDS011;5778;47.856;12.154;2023-03-30T11:38:14;4.03;;;1.40;;
11443;SDS011;5778;47.856;12.154;2023-03-30T11:40:45;10.13;;;2.37;;
11443;SDS011;5778;47.856;12.154;2023-03-30T11:43:14;3.40;;;1.90;;
11443;SDS011;5778;47.856;12.154;2023-03-30T11:45:48;6.27;;;1.80;;
11443;SDS011;5778;47.856;12.154;2023-03-30T11:51:30;7.37;;;2.33;;
11443;SDS011;5778;47.856;12.154;2023-03-30T11:57:25;9.10;;;2.77;;
11443;SDS011;5778;47.856;12.154;2023-03-30T12:00:02;9.37;;;3.37;;
11443;SDS011;5778;47.856;12.154;2023-03-30T12:02:43;9.83;;;3.30;;
11443;SDS011;5778;47.856;12.154;2023-03-30T12:05:18;10.10;;;2.47;;
11443;SDS011;5778;47.856;12.154;2023-03-30T12:07:55;11.87;;;3.17;;
11443;SDS011;5778;47.856;12.154;2023-03-30T12:10:35;12.67;;;3.10;;
11443;SDS011;5778;47.856;12.154;2023-03-30T12:16:16;9.57;;;2.90;;
11443;SDS011;5778;47.856;12.154;2023-03-30T12:18:50;6.70;;;2.83;;
11443;SDS011;5778;47.856;12.154;2023-03-30T12:21:28;10.90;;;2.87;;
11443;SDS011;5778;47.856;12.154;2023-03-30T12:26:50;7.90;;;2.57;;
11443;SDS011;5778;47.856;12.154;2023-03-30T12:29:18;10.87;;;2.87;;
11443;SDS011;5778;47.856;12.154;2023-03-30T12:32:03;10.53;;;3.07;;
11443;SDS011;5778;47.856;12.154;2023-03-30T12:34:47;4.60;;;1.87;;
11443;SDS011;5778;47.856;12.154;2023-03-30T12:37:14;9.50;;;4.30;;
11443;SDS011;5778;47.856;12.154;2023-03-30T12:39:46;12.13;;;4.67;;
11443;SDS011;5778;47.856;12.154;2023-03-30T12:42:20;9.37;;;4.67;;
11443;SDS011;5778;47.856;12.154;2023-03-30T12:48:16;6.70;;;3.33;;
11443;SDS011;5778;47.856;12.154;2023-03-30T12:50:56;7.90;;;2.20;;
11443;SDS011;5778;47.856;12.154;2023-03-30T12:56:59;3.03;;;1.87;;
11443;SDS011;5778;47.856;12.154;2023-03-30T12:59:37;3.23;;;2.00;;
11443;SDS011;5778;47.856;12.154;2023-03-30T13:02:26;2.10;;;1.50;;
11443;SDS011;5778;47.856;12.154;2023-03-30T13:05:15;4.07;;;2.27;;
11443;SDS011;5778;47.856;12.154;2023-03-30T13:07:44;2.83;;;1.83;;
11443;SDS011;5778;47.856;12.154;2023-03-30T13:16:09;4.00;;;2.40;;
11443;SDS011;5778;47.856;12.154;2023-03-30T13:18:40;4.30;;;3.23;;
11443;SDS011;5778;47.856;12.154;2023-03-30T13:21:20;5.07;;;2.90;;
11443;SDS011;5778;47.856;12.154;2023-03-30T13:23:59;5.30;;;2.70;;
11443;SDS011;5778;47.856;12.154;2023-03-30T13:26:28;4.47;;;1.90;;
11443;SDS011;5778;47.856;12.154;2023-03-30T13:29:06;4.00;;;1.70;;
11443;SDS011;5778;47.856;12.154;2023-03-30T13:31:45;3.20;;;1.43;;
11443;SDS011;5778;47.856;12.154;2023-03-30T13:37:31;3.80;;;2.60;;
11443;SDS011;5778;47.856;12.154;2023-03-30T13:40:11;6.77;;;3.33;;
11443;SDS011;5778;47.856;12.154;2023-03-30T13:42:59;6.00;;;3.50;;
11443;SDS011;5778;47.856;12.154;2023-03-30T13:45:34;5.83;;;5.17;;
11443;SDS011;5778;47.856;12.154;2023-03-30T13:48:14;10.90;;;8.90;;
11443;SDS011;5778;47.856;12.154;2023-03-30T13:50:53;10.13;;;5.80;;
11443;SDS011;5778;47.856;12.154;2023-03-30T13:53:22;7.33;;;3.63;;
11443;SDS011;5778;47.856;12.154;2023-03-30T13:55:52;5.33;;;2.63;;
11443;SDS011;5778;47.856;12.154;2023-03-30T13:58:20;5.03;;;2.93;;
11443;SDS011;5778;47.856;12.154;2023-03-30T14:00:51;8.63;;;2.97;;
11443;SDS011;5778;47.856;12.154;2023-03-30T14:06:21;9.00;;;3.27;;
11443;SDS011;5778;47.856;12.154;2023-03-30T14:08:57;17.17;;;5.00;;
11443;SDS011;5778;47.856;12.154;2023-03-30T14:11:35;7.20;;;4.10;;
11443;SDS011;5778;47.856;12.154;2023-03-30T14:14:20;5.00;;;3.77;;
11443;SDS011;5778;47.856;12.154;2023-03-30T14:16:52;7.27;;;3.60;;
11443;SDS011;5778;47.856;12.154;2023-03-30T14:19:22;3.13;;;2.83;;
11443;SDS011;5778;47.856;12.154;2023-03-30T14:21:52;3.27;;;2.83;;
11443;SDS011;5778;47.856;12.154;2023-03-30T14:27:30;4.80;;;3.10;;
11443;SDS011;5778;47.856;12.154;2023-03-30T14:30:00;3.30;;;2.93;;
11443;SDS011;5778;47.856;12.154;2023-03-30T14:32:28;6.27;;;3.50;;
11443;SDS011;5778;47.856;12.154;2023-03-30T14:35:04;7.20;;;4.10;;
11443;SDS011;5778;47.856;12.154;2023-03-30T14:37:32;5.17;;;3.73;;
11443;SDS011;5778;47.856;12.154;2023-03-30T14:40:01;3.70;;;2.70;;
11443;SDS011;5778;47.856;12.154;2023-03-30T14:42:31;3.77;;;2.93;;
11443;SDS011;5778;47.856;12.154;2023-03-30T14:44:59;7.67;;;3.83;;
11443;SDS011;5778;47.856;12.154;2023-03-30T14:47:26;6.03;;;2.90;;
11443;SDS011;5778;47.856;12.154;2023-03-30T14:49:54;6.63;;;3.00;;
11443;SDS011;5778;47.856;12.154;2023-03-30T14:52:25;3.33;;;2.70;;
11443;SDS011;5778;47.856;12.154;2023-03-30T14:55:04;2.83;;;2.37;;
11443;SDS011;5778;47.856;12.154;2023-03-30T14:57:35;5.80;;;2.80;;
11443;SDS011;5778;47.856;12.154;2023-03-30T15:00:04;3.57;;;2.37;;
11443;SDS011;5778;47.856;12.154;2023-03-30T15:02:42;2.43;;;2.23;;
11443;SDS011;5778;47.856;12.154;2023-03-30T15:05:10;2.83;;;2.07;;
11443;SDS011;5778;47.856;12.154;2023-03-30T15:07:45;2.57;;;1.80;;
11443;SDS011;5778;47.856;12.154;2023-03-30T15:10:19;4.90;;;2.97;;
11443;SDS011;5778;47.856;12.154;2023-03-30T15:12:47;2.50;;;2.30;;
11443;SDS011;5778;47.856;12.154;2023-03-30T15:15:15;2.93;;;2.10;;
11443;SDS011;5778;47.856;12.154;2023-03-30T15:17:46;4.10;;;2.00;;
11443;SDS011;5778;47.856;12.154;2023-03-30T15:20:15;4.00;;;1.90;;
11443;SDS011;5778;47.856;12.154;2023-03-30T15:22:45;4.70;;;1.70;;
11443;SDS011;5778;47.856;12.154;2023-03-30T15:25:14;2.57;;;1.73;;
11443;SDS011;5778;47.856;12.154;2023-03-30T15:27:44;3.80;;;1.80;;
11443;SDS011;5778;47.856;12.154;2023-03-30T15:30:18;5.90;;;2.20;;
11443;SDS011;5778;47.856;12.154;2023-03-30T15:32:53;2.23;;;2.00;;
11443;SDS011;5778;47.856;12.154;2023-03-30T15:35:22;3.80;;;2.67;;
11443;SDS011;5778;47.856;12.154;2023-03-30T15:37:54;4.50;;;2.33;;
11443;SDS011;5778;47.856;12.154;2023-03-30T15:40:29;3.77;;;2.50;;
11443;SDS011;5778;47.856;12.154;2023-03-30T15:43:15;5.03;;;2.90;;
11443;SDS011;5778;47.856;12.154;2023-03-30T15:45:45;3.13;;;2.50;;
11443;SDS011;5778;47.856;12.154;2023-03-30T15:48:15;3.20;;;2.40;;
11443;SDS011;5778;47.856;12.154;2023-03-30T15:50:45;3.37;;;2.40;;
11443;SDS011;5778;47.856;12.154;2023-03-30T15:53:19;5.77;;;2.67;;
11443;SDS011;5778;47.856;12.154;2023-03-30T15:55:55;3.97;;;2.87;;
11443;SDS011;5778;47.856;12.154;2023-03-30T15:58:24;4.07;;;3.00;;
11443;SDS011;5778;47.856;12.154;2023-03-30T16:00:52;3.97;;;2.83;;
11443;SDS011;5778;47.856;12.154;2023-03-30T16:03:30;3.30;;;2.93;;
11443;SDS011;5778;47.856;12.154;2023-03-30T16:05:59;3.50;;;2.77;;
11443;SDS011;5778;47.856;12.154;2023-03-30T16:08:28;4.77;;;3.20;;
11443;SDS011;5778;47.856;12.154;2023-03-30T16:10:55;3.70;;;3.30;;
11443;SDS011;5778;47.856;12.154;2023-03-30T16:13:23;7.07;;;5.23;;
11443;SDS011;5778;47.856;12.154;2023-03-30T16:15:49;6.73;;;5.00;;
11443;SDS011;5778;47.856;12.154;2023-03-30T16:18:18;4.73;;;3.60;;
11443;SDS011;5778;47.856;12.154;2023-03-30T16:20:45;3.97;;;3.50;;
11443;SDS011;5778;47.856;12.154;2023-03-30T16:23:12;4.30;;;3.00;;
11443;SDS011;5778;47.856;12.154;2023-03-30T16:25:40;5.50;;;3.80;;
11443;SDS011;5778;47.856;12.154;2023-03-30T16:28:08;4.20;;;3.80;;
11443;SDS011;5778;47.856;12.154;2023-03-30T16:30:41;5.60;;;4.07;;
11443;SDS011;5778;47.856;12.154;2023-03-30T16:33:14;6.13;;;4.33;;
11443;SDS011;5778;47.856;12.154;2023-03-30T16:35:41;5.53;;;4.17;;
11443;SDS011;5778;47.856;12.154;2023-03-30T16:38:08;7.17;;;4.20;;
11443;SDS011;5778;47.856;12.154;2023-03-30T16:40:38;6.50;;;4.93;;
11443;SDS011;5778;47.856;12.154;2023-03-30T16:43:12;5.70;;;4.43;;
11443;SDS011;5778;47.856;12.154;2023-03-30T16:45:39;5.63;;;4.50;;
11443;SDS011;5778;47.856;12.154;2023-03-30T16:48:06;7.50;;;4.73;;
11443;SDS011;5778;47.856;12.154;2023-03-30T16:50:35;6.87;;;5.17;;
11443;SDS011;5778;47.856;12.154;2023-03-30T16:53:03;5.50;;;4.93;;
11443;SDS011;5778;47.856;12.154;2023-03-30T16:55:31;5.70;;;5.07;;
11443;SDS011;5778;47.856;12.154;2023-03-30T16:57:59;5.80;;;5.13;;
11443;SDS011;5778;47.856;12.154;2023-03-30T17:00:28;6.27;;;5.10;;
11443;SDS011;5778;47.856;12.154;2023-03-30T17:02:58;6.37;;;5.20;;
11443;SDS011;5778;47.856;12.154;2023-03-30T17:05:25;7.67;;;5.00;;
11443;SDS011;5778;47.856;12.154;2023-03-30T17:07:52;6.17;;;4.47;;
11443;SDS011;5778;47.856;12.154;2023-03-30T17:10:22;7.13;;;5.00;;
11443;SDS011;5778;47.856;12.154;2023-03-30T17:13:03;8.13;;;4.70;;
11443;SDS011;5778;47.856;12.154;2023-03-30T17:15:32;7.00;;;4.70;;
11443;SDS011;5778;47.856;12.154;2023-03-30T17:18:02;5.73;;;5.10;;
11443;SDS011;5778;47.856;12.154;2023-03-30T17:20:34;5.43;;;4.50;;
11443;SDS011;5778;47.856;12.154;2023-03-30T17:23:09;5.20;;;4.30;;
11443;SDS011;5778;47.856;12.154;2023-03-30T17:25:36;9.77;;;6.07;;
11443;SDS011;5778;47.856;12.154;2023-03-30T17:28:04;10.40;;;6.37;;
11443;SDS011;5778;47.856;12.154;2023-03-30T17:30:35;18.60;;;11.07;;
11443;SDS011;5778;47.856;12.154;2023-03-30T17:33:07;9.67;;;6.03;;
11443;SDS011;5778;47.856;12.154;2023-03-30T17:35:37;8.80;;;5.80;;
11443;SDS011;5778;47.856;12.154;2023-03-30T17:38:04;41.30;;;26.50;;
11443;SDS011;5778;47.856;12.154;2023-03-30T17:40:33;27.23;;;19.03;;
11443;SDS011;5778;47.856;12.154;2023-03-30T17:43:03;26.93;;;20.33;;
11443;SDS011;5778;47.856;12.154;2023-03-30T17:45:30;22.07;;;15.43;;
11443;SDS011;5778;47.856;12.154;2023-03-30T17:48:00;13.37;;;9.93;;
11443;SDS011;5778;47.856;12.154;2023-03-30T17:50:29;12.17;;;8.93;;